sensor_id;sensor_type;location;lat;lon;timestamp;P1;durP1;ratioP1;P2;durP2;ratioP2
12826;SDS011;66927;48.812;9.118;2023-07-31T00:02:05;2.33;;;1.73;;
12826;SDS011;66927;48.812;9.118;2023-07-31T00:04:31;2.90;;;2.00;;
12826;SDS011;66927;48.812;9.118;2023-07-31T00:06:57;5.23;;;1.90;;
12826;SDS011;66927;48.812;9.118;2023-07-31T00:09:23;3.37;;;1.70;;
12826;SDS011;66927;48.812;9.118;2023-07-31T00:11:49;2.93;;;1.70;;
12826;SDS011;66927;48.812;9.118;2023-07-31T00:14:15;2.77;;;1.70;;
12826;SDS011;66927;48.812;9.118;2023-07-31T00:16:40;4.20;;;1.90;;
12826;SDS011;66927;48.812;9.118;2023-07-31T00:19:06;2.87;;;1.97;;
12826;SDS011;66927;48.812;9.118;2023-07-31T00:21:32;2.20;;;1.40;;
12826;SDS011;66927;48.812;9.118;2023-07-31T00:23:57;2.07;;;1.70;;
12826;SDS011;66927;48.812;9.118;2023-07-31T00:26:23;4.67;;;2.10;;
12826;SDS011;66927;48.812;9.118;2023-07-31T00:28:48;3.73;;;1.90;;
12826;SDS011;66927;48.812;9.118;2023-07-31T00:31:14;1.87;;;1.57;;
12826;SDS011;66927;48.812;9.118;2023-07-31T00:33:39;2.97;;;1.43;;
12826;SDS011;66927;48.812;9.118;2023-07-31T00:36:08;4.97;;;1.80;;
12826;SDS011;66927;48.812;9.118;2023-07-31T00:38:34;2.80;;;1.70;;
12826;SDS011;66927;48.812;9.118;2023-07-31T00:40:59;3.70;;;1.70;;
12826;SDS011;66927;48.812;9.118;2023-07-31T00:43:25;5.37;;;2.30;;
12826;SDS011;66927;48.812;9.118;2023-07-31T00:45:50;3.17;;;2.00;;
12826;SDS011;66927;48.812;9.118;2023-07-31T00:48:16;4.20;;;1.43;;
12826;SDS011;66927;48.812;9.118;2023-07-31T00:50:41;3.20;;;1.50;;
12826;SDS011;66927;48.812;9.118;2023-07-31T00:53:07;3.10;;;1.80;;
12826;SDS011;66927;48.812;9.118;2023-07-31T00:55:34;5.23;;;2.00;;
12826;SDS011;66927;48.812;9.118;2023-07-31T00:57:59;2.77;;;1.60;;
12826;SDS011;66927;48.812;9.118;2023-07-31T01:00:25;2.40;;;1.60;;
12826;SDS011;66927;48.812;9.118;2023-07-31T01:02:51;2.63;;;1.67;;
12826;SDS011;66927;48.812;9.118;2023-07-31T01:05:17;2.27;;;1.50;;
12826;SDS011;66927;48.812;9.118;2023-07-31T01:07:56;3.07;;;1.70;;
12826;SDS011;66927;48.812;9.118;2023-07-31T01:10:50;2.80;;;1.70;;
12826;SDS011;66927;48.812;9.118;2023-07-31T01:13:21;2.67;;;1.93;;
12826;SDS011;66927;48.812;9.118;2023-07-31T01:15:47;2.93;;;1.60;;
12826;SDS011;66927;48.812;9.118;2023-07-31T01:18:13;4.07;;;1.83;;
12826;SDS011;66927;48.812;9.118;2023-07-31T01:20:38;2.80;;;1.97;;
12826;SDS011;66927;48.812;9.118;2023-07-31T01:25:56;3.40;;;1.70;;
12826;SDS011;66927;48.812;9.118;2023-07-31T01:31:25;3.37;;;1.60;;
12826;SDS011;66927;48.812;9.118;2023-07-31T01:33:54;2.67;;;1.63;;
12826;SDS011;66927;48.812;9.118;2023-07-31T01:36:25;4.37;;;1.80;;
12826;SDS011;66927;48.812;9.118;2023-07-31T01:38:51;5.10;;;1.87;;
12826;SDS011;66927;48.812;9.118;2023-07-31T01:41:19;3.50;;;1.83;;
12826;SDS011;66927;48.812;9.118;2023-07-31T01:43:45;3.63;;;1.80;;
12826;SDS011;66927;48.812;9.118;2023-07-31T01:46:11;2.60;;;1.87;;
12826;SDS011;66927;48.812;9.118;2023-07-31T01:48:37;2.47;;;1.63;;
12826;SDS011;66927;48.812;9.118;2023-07-31T01:51:02;5.37;;;2.23;;
12826;SDS011;66927;48.812;9.118;2023-07-31T01:53:28;3.17;;;1.77;;
12826;SDS011;66927;48.812;9.118;2023-07-31T01:55:56;4.03;;;1.90;;
12826;SDS011;66927;48.812;9.118;2023-07-31T01:58:21;3.30;;;2.00;;
12826;SDS011;66927;48.812;9.118;2023-07-31T02:00:47;5.30;;;2.00;;
12826;SDS011;66927;48.812;9.118;2023-07-31T02:03:13;4.10;;;1.83;;
12826;SDS011;66927;48.812;9.118;2023-07-31T02:05:45;2.80;;;1.73;;
12826;SDS011;66927;48.812;9.118;2023-07-31T02:08:14;3.40;;;1.90;;
12826;SDS011;66927;48.812;9.118;2023-07-31T02:10:40;2.70;;;2.00;;
12826;SDS011;66927;48.812;9.118;2023-07-31T02:13:06;4.90;;;2.00;;
12826;SDS011;66927;48.812;9.118;2023-07-31T02:15:32;2.50;;;1.83;;
12826;SDS011;66927;48.812;9.118;2023-07-31T02:17:58;3.77;;;1.70;;
12826;SDS011;66927;48.812;9.118;2023-07-31T02:20:23;3.87;;;1.73;;
12826;SDS011;66927;48.812;9.118;2023-07-31T02:22:49;4.13;;;2.23;;
12826;SDS011;66927;48.812;9.118;2023-07-31T02:25:15;2.33;;;1.80;;
12826;SDS011;66927;48.812;9.118;2023-07-31T02:27:41;5.20;;;2.10;;
12826;SDS011;66927;48.812;9.118;2023-07-31T02:30:07;4.13;;;2.10;;
12826;SDS011;66927;48.812;9.118;2023-07-31T02:32:33;3.23;;;2.00;;
12826;SDS011;66927;48.812;9.118;2023-07-31T02:34:58;2.00;;;1.67;;
12826;SDS011;66927;48.812;9.118;2023-07-31T02:37:24;2.63;;;1.73;;
12826;SDS011;66927;48.812;9.118;2023-07-31T02:39:50;3.33;;;1.83;;
12826;SDS011;66927;48.812;9.118;2023-07-31T02:42:16;1.97;;;1.40;;
12826;SDS011;66927;48.812;9.118;2023-07-31T02:44:41;5.57;;;1.97;;
12826;SDS011;66927;48.812;9.118;2023-07-31T02:47:07;3.37;;;1.80;;
12826;SDS011;66927;48.812;9.118;2023-07-31T02:49:33;2.83;;;1.77;;
12826;SDS011;66927;48.812;9.118;2023-07-31T02:51:58;4.13;;;1.90;;
12826;SDS011;66927;48.812;9.118;2023-07-31T02:54:24;2.80;;;1.80;;
12826;SDS011;66927;48.812;9.118;2023-07-31T02:56:49;3.90;;;2.10;;
12826;SDS011;66927;48.812;9.118;2023-07-31T02:59:16;3.40;;;2.03;;
12826;SDS011;66927;48.812;9.118;2023-07-31T03:01:42;5.20;;;1.87;;
12826;SDS011;66927;48.812;9.118;2023-07-31T03:04:08;4.73;;;1.83;;
12826;SDS011;66927;48.812;9.118;2023-07-31T03:06:33;3.80;;;1.87;;
12826;SDS011;66927;48.812;9.118;2023-07-31T03:08:59;3.30;;;1.63;;
12826;SDS011;66927;48.812;9.118;2023-07-31T03:11:26;5.50;;;1.97;;
12826;SDS011;66927;48.812;9.118;2023-07-31T03:13:51;4.60;;;1.70;;
12826;SDS011;66927;48.812;9.118;2023-07-31T03:16:17;2.33;;;1.50;;
12826;SDS011;66927;48.812;9.118;2023-07-31T03:18:44;2.97;;;1.90;;
12826;SDS011;66927;48.812;9.118;2023-07-31T03:21:09;6.97;;;1.83;;
12826;SDS011;66927;48.812;9.118;2023-07-31T03:23:35;2.93;;;1.90;;
12826;SDS011;66927;48.812;9.118;2023-07-31T03:26:01;2.70;;;1.50;;
12826;SDS011;66927;48.812;9.118;2023-07-31T03:28:28;4.00;;;2.00;;
12826;SDS011;66927;48.812;9.118;2023-07-31T03:30:54;3.87;;;2.00;;
12826;SDS011;66927;48.812;9.118;2023-07-31T03:33:20;4.20;;;2.00;;
12826;SDS011;66927;48.812;9.118;2023-07-31T03:35:46;5.57;;;2.00;;
12826;SDS011;66927;48.812;9.118;2023-07-31T03:38:11;2.67;;;1.83;;
12826;SDS011;66927;48.812;9.118;2023-07-31T03:40:37;4.23;;;2.40;;
12826;SDS011;66927;48.812;9.118;2023-07-31T03:43:04;5.33;;;2.03;;
12826;SDS011;66927;48.812;9.118;2023-07-31T03:45:30;5.60;;;1.90;;
12826;SDS011;66927;48.812;9.118;2023-07-31T03:47:56;4.27;;;2.10;;
12826;SDS011;66927;48.812;9.118;2023-07-31T03:50:22;2.90;;;1.80;;
12826;SDS011;66927;48.812;9.118;2023-07-31T03:52:48;4.03;;;1.93;;
12826;SDS011;66927;48.812;9.118;2023-07-31T03:55:13;3.30;;;1.87;;
12826;SDS011;66927;48.812;9.118;2023-07-31T03:57:39;3.93;;;1.70;;
12826;SDS011;66927;48.812;9.118;2023-07-31T04:00:05;2.00;;;1.70;;
12826;SDS011;66927;48.812;9.118;2023-07-31T04:02:31;3.00;;;1.90;;
12826;SDS011;66927;48.812;9.118;2023-07-31T04:04:56;4.47;;;2.23;;
12826;SDS011;66927;48.812;9.118;2023-07-31T04:07:22;3.13;;;1.93;;
12826;SDS011;66927;48.812;9.118;2023-07-31T04:09:47;3.40;;;1.83;;
12826;SDS011;66927;48.812;9.118;2023-07-31T04:12:13;5.27;;;2.33;;
12826;SDS011;66927;48.812;9.118;2023-07-31T04:14:39;2.43;;;1.60;;
12826;SDS011;66927;48.812;9.118;2023-07-31T04:17:04;2.67;;;1.80;;
12826;SDS011;66927;48.812;9.118;2023-07-31T04:19:30;4.03;;;2.20;;
12826;SDS011;66927;48.812;9.118;2023-07-31T04:21:55;5.23;;;2.20;;
12826;SDS011;66927;48.812;9.118;2023-07-31T04:24:21;5.67;;;1.93;;
12826;SDS011;66927;48.812;9.118;2023-07-31T04:26:50;3.57;;;2.00;;
12826;SDS011;66927;48.812;9.118;2023-07-31T04:29:16;3.80;;;2.10;;
12826;SDS011;66927;48.812;9.118;2023-07-31T04:31:42;3.50;;;2.13;;
12826;SDS011;66927;48.812;9.118;2023-07-31T04:34:07;5.73;;;2.00;;
12826;SDS011;66927;48.812;9.118;2023-07-31T04:36:33;2.53;;;1.90;;
12826;SDS011;66927;48.812;9.118;2023-07-31T04:38:59;2.70;;;1.80;;
12826;SDS011;66927;48.812;9.118;2023-07-31T04:41:25;4.63;;;1.90;;
12826;SDS011;66927;48.812;9.118;2023-07-31T04:43:51;3.27;;;2.00;;
12826;SDS011;66927;48.812;9.118;2023-07-31T04:46:18;2.73;;;1.90;;
12826;SDS011;66927;48.812;9.118;2023-07-31T04:48:43;2.60;;;1.87;;
12826;SDS011;66927;48.812;9.118;2023-07-31T04:51:09;3.10;;;1.57;;
12826;SDS011;66927;48.812;9.118;2023-07-31T04:53:35;3.20;;;1.80;;
12826;SDS011;66927;48.812;9.118;2023-07-31T04:56:01;3.80;;;1.90;;
12826;SDS011;66927;48.812;9.118;2023-07-31T04:58:26;2.67;;;1.73;;
12826;SDS011;66927;48.812;9.118;2023-07-31T05:00:52;3.87;;;1.93;;
12826;SDS011;66927;48.812;9.118;2023-07-31T05:03:17;4.70;;;2.10;;
12826;SDS011;66927;48.812;9.118;2023-07-31T05:05:43;3.60;;;2.00;;
12826;SDS011;66927;48.812;9.118;2023-07-31T05:08:08;3.50;;;1.90;;
12826;SDS011;66927;48.812;9.118;2023-07-31T05:10:34;3.33;;;1.80;;
12826;SDS011;66927;48.812;9.118;2023-07-31T05:13:00;2.27;;;1.60;;
12826;SDS011;66927;48.812;9.118;2023-07-31T05:15:25;2.80;;;1.93;;
12826;SDS011;66927;48.812;9.118;2023-07-31T05:17:51;3.70;;;2.10;;
12826;SDS011;66927;48.812;9.118;2023-07-31T05:20:17;2.87;;;2.07;;
12826;SDS011;66927;48.812;9.118;2023-07-31T05:22:43;4.33;;;2.10;;
12826;SDS011;66927;48.812;9.118;2023-07-31T05:25:10;3.97;;;2.00;;
12826;SDS011;66927;48.812;9.118;2023-07-31T05:27:36;3.73;;;2.17;;
12826;SDS011;66927;48.812;9.118;2023-07-31T05:30:02;3.83;;;1.90;;
12826;SDS011;66927;48.812;9.118;2023-07-31T05:32:28;5.40;;;2.33;;
12826;SDS011;66927;48.812;9.118;2023-07-31T05:34:54;3.97;;;1.70;;
12826;SDS011;66927;48.812;9.118;2023-07-31T05:37:19;4.90;;;2.10;;
12826;SDS011;66927;48.812;9.118;2023-07-31T05:39:46;4.50;;;2.00;;
12826;SDS011;66927;48.812;9.118;2023-07-31T05:42:12;3.60;;;2.10;;
12826;SDS011;66927;48.812;9.118;2023-07-31T05:44:38;3.43;;;2.20;;
12826;SDS011;66927;48.812;9.118;2023-07-31T05:47:05;3.83;;;1.90;;
12826;SDS011;66927;48.812;9.118;2023-07-31T05:49:30;4.17;;;2.20;;
12826;SDS011;66927;48.812;9.118;2023-07-31T05:51:56;3.77;;;2.10;;
12826;SDS011;66927;48.812;9.118;2023-07-31T05:54:21;2.90;;;2.07;;
12826;SDS011;66927;48.812;9.118;2023-07-31T05:56:47;2.60;;;2.07;;
12826;SDS011;66927;48.812;9.118;2023-07-31T05:59:13;3.83;;;2.10;;
12826;SDS011;66927;48.812;9.118;2023-07-31T06:01:38;3.80;;;2.13;;
12826;SDS011;66927;48.812;9.118;2023-07-31T06:04:04;3.23;;;1.80;;
12826;SDS011;66927;48.812;9.118;2023-07-31T06:06:30;2.77;;;1.83;;
12826;SDS011;66927;48.812;9.118;2023-07-31T06:08:57;3.27;;;2.30;;
12826;SDS011;66927;48.812;9.118;2023-07-31T06:11:24;2.27;;;1.67;;
12826;SDS011;66927;48.812;9.118;2023-07-31T06:13:50;5.30;;;1.87;;
12826;SDS011;66927;48.812;9.118;2023-07-31T06:16:16;4.37;;;2.43;;
12826;SDS011;66927;48.812;9.118;2023-07-31T06:18:42;2.23;;;1.63;;
12826;SDS011;66927;48.812;9.118;2023-07-31T06:21:07;5.87;;;2.40;;
12826;SDS011;66927;48.812;9.118;2023-07-31T06:23:34;3.80;;;1.90;;
12826;SDS011;66927;48.812;9.118;2023-07-31T06:25:59;4.93;;;2.00;;
12826;SDS011;66927;48.812;9.118;2023-07-31T06:28:28;4.17;;;2.10;;
12826;SDS011;66927;48.812;9.118;2023-07-31T06:30:54;3.87;;;2.17;;
12826;SDS011;66927;48.812;9.118;2023-07-31T06:33:20;5.60;;;2.27;;
12826;SDS011;66927;48.812;9.118;2023-07-31T06:35:46;3.50;;;2.00;;
12826;SDS011;66927;48.812;9.118;2023-07-31T06:38:11;4.57;;;2.30;;
12826;SDS011;66927;48.812;9.118;2023-07-31T06:40:37;4.00;;;2.17;;
12826;SDS011;66927;48.812;9.118;2023-07-31T06:43:03;4.30;;;2.10;;
12826;SDS011;66927;48.812;9.118;2023-07-31T06:45:33;5.73;;;2.27;;
12826;SDS011;66927;48.812;9.118;2023-07-31T06:48:00;3.77;;;2.27;;
12826;SDS011;66927;48.812;9.118;2023-07-31T06:50:26;4.73;;;2.40;;
12826;SDS011;66927;48.812;9.118;2023-07-31T06:52:55;3.80;;;2.23;;
12826;SDS011;66927;48.812;9.118;2023-07-31T06:55:21;3.13;;;1.90;;
12826;SDS011;66927;48.812;9.118;2023-07-31T06:57:47;3.40;;;1.73;;
12826;SDS011;66927;48.812;9.118;2023-07-31T07:00:18;5.03;;;1.97;;
12826;SDS011;66927;48.812;9.118;2023-07-31T07:02:44;4.70;;;2.33;;
12826;SDS011;66927;48.812;9.118;2023-07-31T07:05:10;2.77;;;2.20;;
12826;SDS011;66927;48.812;9.118;2023-07-31T07:07:35;3.03;;;2.07;;
12826;SDS011;66927;48.812;9.118;2023-07-31T07:10:01;4.00;;;2.27;;
12826;SDS011;66927;48.812;9.118;2023-07-31T07:12:29;4.63;;;2.17;;
12826;SDS011;66927;48.812;9.118;2023-07-31T07:14:56;4.27;;;2.27;;
12826;SDS011;66927;48.812;9.118;2023-07-31T07:17:22;4.10;;;2.00;;
12826;SDS011;66927;48.812;9.118;2023-07-31T07:19:48;2.87;;;2.23;;
12826;SDS011;66927;48.812;9.118;2023-07-31T07:22:14;3.57;;;2.00;;
12826;SDS011;66927;48.812;9.118;2023-07-31T07:24:40;3.63;;;1.77;;
12826;SDS011;66927;48.812;9.118;2023-07-31T07:27:06;3.33;;;1.87;;
12826;SDS011;66927;48.812;9.118;2023-07-31T07:29:33;7.10;;;2.23;;
12826;SDS011;66927;48.812;9.118;2023-07-31T07:31:59;4.40;;;2.23;;
12826;SDS011;66927;48.812;9.118;2023-07-31T07:34:28;5.03;;;2.70;;
12826;SDS011;66927;48.812;9.118;2023-07-31T07:36:53;8.70;;;2.20;;
12826;SDS011;66927;48.812;9.118;2023-07-31T07:39:19;5.30;;;2.20;;
12826;SDS011;66927;48.812;9.118;2023-07-31T07:41:45;5.73;;;1.90;;
12826;SDS011;66927;48.812;9.118;2023-07-31T07:44:11;6.10;;;2.37;;
12826;SDS011;66927;48.812;9.118;2023-07-31T07:46:38;3.93;;;2.10;;
12826;SDS011;66927;48.812;9.118;2023-07-31T07:49:03;4.10;;;2.30;;
12826;SDS011;66927;48.812;9.118;2023-07-31T07:51:29;4.20;;;2.10;;
12826;SDS011;66927;48.812;9.118;2023-07-31T07:53:57;4.83;;;2.07;;
12826;SDS011;66927;48.812;9.118;2023-07-31T07:56:23;4.57;;;2.07;;
12826;SDS011;66927;48.812;9.118;2023-07-31T07:58:50;4.03;;;2.40;;
12826;SDS011;66927;48.812;9.118;2023-07-31T08:01:16;4.03;;;2.50;;
12826;SDS011;66927;48.812;9.118;2023-07-31T08:03:42;4.47;;;2.07;;
12826;SDS011;66927;48.812;9.118;2023-07-31T08:06:07;4.33;;;2.50;;
12826;SDS011;66927;48.812;9.118;2023-07-31T08:08:36;4.90;;;2.40;;
12826;SDS011;66927;48.812;9.118;2023-07-31T08:11:02;4.80;;;2.50;;
12826;SDS011;66927;48.812;9.118;2023-07-31T08:13:28;9.67;;;2.70;;
12826;SDS011;66927;48.812;9.118;2023-07-31T08:15:53;4.20;;;2.33;;
12826;SDS011;66927;48.812;9.118;2023-07-31T08:18:19;4.93;;;2.50;;
12826;SDS011;66927;48.812;9.118;2023-07-31T08:20:45;3.17;;;2.10;;
12826;SDS011;66927;48.812;9.118;2023-07-31T08:23:11;3.30;;;2.47;;
12826;SDS011;66927;48.812;9.118;2023-07-31T08:25:36;7.50;;;2.57;;
12826;SDS011;66927;48.812;9.118;2023-07-31T08:28:02;5.13;;;2.53;;
12826;SDS011;66927;48.812;9.118;2023-07-31T08:30:31;5.20;;;2.50;;
12826;SDS011;66927;48.812;9.118;2023-07-31T08:32:58;5.90;;;2.70;;
12826;SDS011;66927;48.812;9.118;2023-07-31T08:35:24;3.33;;;2.27;;
12826;SDS011;66927;48.812;9.118;2023-07-31T08:37:53;6.07;;;2.40;;
12826;SDS011;66927;48.812;9.118;2023-07-31T08:40:20;5.47;;;2.50;;
12826;SDS011;66927;48.812;9.118;2023-07-31T08:42:49;4.53;;;2.80;;
12826;SDS011;66927;48.812;9.118;2023-07-31T08:45:18;3.07;;;2.37;;
12826;SDS011;66927;48.812;9.118;2023-07-31T08:47:45;6.40;;;2.63;;
12826;SDS011;66927;48.812;9.118;2023-07-31T08:50:12;4.53;;;2.40;;
12826;SDS011;66927;48.812;9.118;2023-07-31T08:52:38;4.60;;;2.50;;
12826;SDS011;66927;48.812;9.118;2023-07-31T08:55:05;4.27;;;2.50;;
12826;SDS011;66927;48.812;9.118;2023-07-31T08:57:31;5.03;;;2.23;;
12826;SDS011;66927;48.812;9.118;2023-07-31T08:59:59;4.80;;;2.40;;
12826;SDS011;66927;48.812;9.118;2023-07-31T09:02:26;4.20;;;2.40;;
12826;SDS011;66927;48.812;9.118;2023-07-31T09:05:01;5.30;;;2.63;;
12826;SDS011;66927;48.812;9.118;2023-07-31T09:07:28;5.43;;;2.10;;
12826;SDS011;66927;48.812;9.118;2023-07-31T09:09:56;4.20;;;2.27;;
12826;SDS011;66927;48.812;9.118;2023-07-31T09:12:22;5.80;;;2.50;;
12826;SDS011;66927;48.812;9.118;2023-07-31T09:14:49;2.77;;;2.07;;
12826;SDS011;66927;48.812;9.118;2023-07-31T09:17:15;5.07;;;2.63;;
12826;SDS011;66927;48.812;9.118;2023-07-31T09:19:43;6.00;;;2.40;;
12826;SDS011;66927;48.812;9.118;2023-07-31T09:22:10;3.97;;;2.43;;
12826;SDS011;66927;48.812;9.118;2023-07-31T09:24:36;5.53;;;2.60;;
12826;SDS011;66927;48.812;9.118;2023-07-31T09:27:02;5.60;;;2.60;;
12826;SDS011;66927;48.812;9.118;2023-07-31T09:29:28;7.43;;;2.97;;
12826;SDS011;66927;48.812;9.118;2023-07-31T09:31:55;4.77;;;2.13;;
12826;SDS011;66927;48.812;9.118;2023-07-31T09:34:28;3.90;;;2.33;;
12826;SDS011;66927;48.812;9.118;2023-07-31T09:37:02;5.07;;;2.50;;
12826;SDS011;66927;48.812;9.118;2023-07-31T09:39:29;4.10;;;2.77;;
12826;SDS011;66927;48.812;9.118;2023-07-31T09:41:56;4.90;;;2.73;;
12826;SDS011;66927;48.812;9.118;2023-07-31T09:44:36;12.77;;;3.00;;
12826;SDS011;66927;48.812;9.118;2023-07-31T09:47:05;4.47;;;2.83;;
12826;SDS011;66927;48.812;9.118;2023-07-31T09:49:30;15.43;;;4.47;;
12826;SDS011;66927;48.812;9.118;2023-07-31T09:51:56;6.13;;;2.87;;
12826;SDS011;66927;48.812;9.118;2023-07-31T09:54:22;4.37;;;2.67;;
12826;SDS011;66927;48.812;9.118;2023-07-31T09:56:48;3.97;;;2.70;;
12826;SDS011;66927;48.812;9.118;2023-07-31T09:59:14;4.57;;;2.57;;
12826;SDS011;66927;48.812;9.118;2023-07-31T10:01:44;7.10;;;3.03;;
12826;SDS011;66927;48.812;9.118;2023-07-31T10:04:11;4.37;;;2.33;;
12826;SDS011;66927;48.812;9.118;2023-07-31T10:06:38;5.37;;;2.80;;
12826;SDS011;66927;48.812;9.118;2023-07-31T10:09:05;5.17;;;2.80;;
12826;SDS011;66927;48.812;9.118;2023-07-31T10:11:38;3.90;;;2.50;;
12826;SDS011;66927;48.812;9.118;2023-07-31T10:14:10;6.03;;;3.17;;
12826;SDS011;66927;48.812;9.118;2023-07-31T10:16:37;5.07;;;2.50;;
12826;SDS011;66927;48.812;9.118;2023-07-31T10:19:05;5.90;;;2.50;;
12826;SDS011;66927;48.812;9.118;2023-07-31T10:21:31;2.83;;;2.40;;
12826;SDS011;66927;48.812;9.118;2023-07-31T10:24:01;3.97;;;2.40;;
12826;SDS011;66927;48.812;9.118;2023-07-31T10:26:28;7.27;;;2.70;;
12826;SDS011;66927;48.812;9.118;2023-07-31T10:28:55;5.77;;;2.63;;
12826;SDS011;66927;48.812;9.118;2023-07-31T10:31:22;3.87;;;2.30;;
12826;SDS011;66927;48.812;9.118;2023-07-31T10:33:48;3.20;;;2.37;;
12826;SDS011;66927;48.812;9.118;2023-07-31T10:36:17;4.97;;;2.70;;
12826;SDS011;66927;48.812;9.118;2023-07-31T10:38:44;3.03;;;2.67;;
12826;SDS011;66927;48.812;9.118;2023-07-31T10:41:10;4.13;;;2.40;;
12826;SDS011;66927;48.812;9.118;2023-07-31T10:43:38;6.47;;;2.60;;
12826;SDS011;66927;48.812;9.118;2023-07-31T10:46:08;6.27;;;2.70;;
12826;SDS011;66927;48.812;9.118;2023-07-31T10:48:34;5.17;;;2.80;;
12826;SDS011;66927;48.812;9.118;2023-07-31T10:51:01;6.60;;;3.10;;
12826;SDS011;66927;48.812;9.118;2023-07-31T10:53:33;5.27;;;3.10;;
12826;SDS011;66927;48.812;9.118;2023-07-31T10:56:00;4.73;;;2.90;;
12826;SDS011;66927;48.812;9.118;2023-07-31T10:58:27;7.10;;;3.10;;
12826;SDS011;66927;48.812;9.118;2023-07-31T11:00:56;4.20;;;2.93;;
12826;SDS011;66927;48.812;9.118;2023-07-31T11:03:45;5.07;;;3.07;;
12826;SDS011;66927;48.812;9.118;2023-07-31T11:06:17;4.23;;;2.83;;
12826;SDS011;66927;48.812;9.118;2023-07-31T11:08:47;5.70;;;2.70;;
12826;SDS011;66927;48.812;9.118;2023-07-31T11:11:14;4.97;;;2.77;;
12826;SDS011;66927;48.812;9.118;2023-07-31T11:13:48;4.13;;;2.90;;
12826;SDS011;66927;48.812;9.118;2023-07-31T11:16:15;4.57;;;2.83;;
12826;SDS011;66927;48.812;9.118;2023-07-31T11:18:42;6.17;;;2.60;;
12826;SDS011;66927;48.812;9.118;2023-07-31T11:21:13;5.03;;;2.93;;
12826;SDS011;66927;48.812;9.118;2023-07-31T11:23:47;5.43;;;2.90;;
12826;SDS011;66927;48.812;9.118;2023-07-31T11:26:21;8.63;;;2.63;;
12826;SDS011;66927;48.812;9.118;2023-07-31T11:28:49;5.83;;;3.07;;
12826;SDS011;66927;48.812;9.118;2023-07-31T11:31:15;6.57;;;3.00;;
12826;SDS011;66927;48.812;9.118;2023-07-31T11:33:41;3.40;;;2.77;;
12826;SDS011;66927;48.812;9.118;2023-07-31T11:36:13;7.97;;;3.10;;
12826;SDS011;66927;48.812;9.118;2023-07-31T11:38:40;5.00;;;2.80;;
12826;SDS011;66927;48.812;9.118;2023-07-31T11:41:06;6.37;;;3.10;;
12826;SDS011;66927;48.812;9.118;2023-07-31T11:43:32;3.10;;;2.80;;
12826;SDS011;66927;48.812;9.118;2023-07-31T11:45:58;4.93;;;2.63;;
12826;SDS011;66927;48.812;9.118;2023-07-31T11:48:31;6.43;;;3.20;;
12826;SDS011;66927;48.812;9.118;2023-07-31T11:51:02;5.53;;;2.93;;
12826;SDS011;66927;48.812;9.118;2023-07-31T11:56:16;4.93;;;3.30;;
12826;SDS011;66927;48.812;9.118;2023-07-31T11:58:44;5.43;;;2.77;;
12826;SDS011;66927;48.812;9.118;2023-07-31T12:01:13;5.57;;;2.70;;
12826;SDS011;66927;48.812;9.118;2023-07-31T12:03:40;3.67;;;2.73;;
12826;SDS011;66927;48.812;9.118;2023-07-31T12:06:07;3.87;;;2.40;;
12826;SDS011;66927;48.812;9.118;2023-07-31T12:08:33;4.57;;;2.77;;
12826;SDS011;66927;48.812;9.118;2023-07-31T12:11:02;5.27;;;3.00;;
12826;SDS011;66927;48.812;9.118;2023-07-31T12:13:30;4.10;;;2.60;;
12826;SDS011;66927;48.812;9.118;2023-07-31T12:15:57;5.37;;;2.80;;
12826;SDS011;66927;48.812;9.118;2023-07-31T12:18:28;4.20;;;2.70;;
12826;SDS011;66927;48.812;9.118;2023-07-31T12:20:58;7.10;;;3.43;;
12826;SDS011;66927;48.812;9.118;2023-07-31T12:23:27;5.47;;;3.30;;
12826;SDS011;66927;48.812;9.118;2023-07-31T12:28:29;4.83;;;3.03;;
12826;SDS011;66927;48.812;9.118;2023-07-31T12:30:59;8.60;;;2.87;;
12826;SDS011;66927;48.812;9.118;2023-07-31T12:33:30;5.07;;;2.73;;
12826;SDS011;66927;48.812;9.118;2023-07-31T12:35:57;3.20;;;2.63;;
12826;SDS011;66927;48.812;9.118;2023-07-31T12:38:25;5.87;;;3.33;;
12826;SDS011;66927;48.812;9.118;2023-07-31T12:40:50;3.90;;;2.80;;
12826;SDS011;66927;48.812;9.118;2023-07-31T12:43:16;4.27;;;2.90;;
12826;SDS011;66927;48.812;9.118;2023-07-31T12:45:43;3.27;;;2.83;;
12826;SDS011;66927;48.812;9.118;2023-07-31T12:48:08;6.73;;;3.17;;
12826;SDS011;66927;48.812;9.118;2023-07-31T12:50:34;4.30;;;2.87;;
12826;SDS011;66927;48.812;9.118;2023-07-31T12:53:01;4.90;;;3.00;;
12826;SDS011;66927;48.812;9.118;2023-07-31T12:55:30;3.30;;;2.67;;
12826;SDS011;66927;48.812;9.118;2023-07-31T12:57:59;4.33;;;3.07;;
12826;SDS011;66927;48.812;9.118;2023-07-31T13:00:25;3.90;;;2.80;;
12826;SDS011;66927;48.812;9.118;2023-07-31T13:02:51;5.17;;;3.00;;
12826;SDS011;66927;48.812;9.118;2023-07-31T13:05:18;5.43;;;2.87;;
12826;SDS011;66927;48.812;9.118;2023-07-31T13:07:45;5.53;;;2.60;;
12826;SDS011;66927;48.812;9.118;2023-07-31T13:10:11;4.17;;;2.60;;
12826;SDS011;66927;48.812;9.118;2023-07-31T13:12:36;3.27;;;2.80;;
12826;SDS011;66927;48.812;9.118;2023-07-31T13:15:03;9.27;;;2.70;;
12826;SDS011;66927;48.812;9.118;2023-07-31T13:17:29;6.87;;;3.30;;
12826;SDS011;66927;48.812;9.118;2023-07-31T13:19:55;2.90;;;2.47;;
12826;SDS011;66927;48.812;9.118;2023-07-31T13:22:20;3.73;;;2.50;;
12826;SDS011;66927;48.812;9.118;2023-07-31T13:24:46;6.50;;;2.80;;
12826;SDS011;66927;48.812;9.118;2023-07-31T13:27:12;7.33;;;3.00;;
12826;SDS011;66927;48.812;9.118;2023-07-31T13:29:38;4.67;;;2.67;;
12826;SDS011;66927;48.812;9.118;2023-07-31T13:32:04;3.90;;;2.50;;
12826;SDS011;66927;48.812;9.118;2023-07-31T13:34:29;3.13;;;2.30;;
12826;SDS011;66927;48.812;9.118;2023-07-31T13:36:56;5.07;;;2.70;;
12826;SDS011;66927;48.812;9.118;2023-07-31T13:39:23;4.23;;;2.40;;
12826;SDS011;66927;48.812;9.118;2023-07-31T13:41:49;3.80;;;2.73;;
12826;SDS011;66927;48.812;9.118;2023-07-31T13:44:14;4.90;;;2.70;;
12826;SDS011;66927;48.812;9.118;2023-07-31T13:46:40;4.47;;;2.73;;
12826;SDS011;66927;48.812;9.118;2023-07-31T13:49:07;3.43;;;2.73;;
12826;SDS011;66927;48.812;9.118;2023-07-31T13:51:32;5.57;;;2.87;;
12826;SDS011;66927;48.812;9.118;2023-07-31T13:53:58;4.13;;;3.10;;
12826;SDS011;66927;48.812;9.118;2023-07-31T13:56:24;8.20;;;2.90;;
12826;SDS011;66927;48.812;9.118;2023-07-31T13:58:49;3.90;;;2.90;;
12826;SDS011;66927;48.812;9.118;2023-07-31T14:01:15;3.97;;;2.60;;
12826;SDS011;66927;48.812;9.118;2023-07-31T14:03:41;7.67;;;3.10;;
12826;SDS011;66927;48.812;9.118;2023-07-31T14:06:06;3.53;;;2.83;;
12826;SDS011;66927;48.812;9.118;2023-07-31T14:08:32;4.47;;;2.63;;
12826;SDS011;66927;48.812;9.118;2023-07-31T14:10:58;3.37;;;2.67;;
12826;SDS011;66927;48.812;9.118;2023-07-31T14:13:23;3.97;;;2.47;;
12826;SDS011;66927;48.812;9.118;2023-07-31T14:15:49;6.23;;;2.93;;
12826;SDS011;66927;48.812;9.118;2023-07-31T14:18:15;3.63;;;2.50;;
12826;SDS011;66927;48.812;9.118;2023-07-31T14:20:40;4.00;;;2.70;;
12826;SDS011;66927;48.812;9.118;2023-07-31T14:23:06;4.50;;;2.50;;
12826;SDS011;66927;48.812;9.118;2023-07-31T14:25:31;5.83;;;2.73;;
12826;SDS011;66927;48.812;9.118;2023-07-31T14:27:57;4.37;;;2.97;;
12826;SDS011;66927;48.812;9.118;2023-07-31T14:30:23;4.00;;;2.83;;
12826;SDS011;66927;48.812;9.118;2023-07-31T14:32:48;7.17;;;3.00;;
12826;SDS011;66927;48.812;9.118;2023-07-31T14:35:14;4.23;;;2.90;;
12826;SDS011;66927;48.812;9.118;2023-07-31T14:37:40;3.40;;;2.67;;
12826;SDS011;66927;48.812;9.118;2023-07-31T14:40:08;3.60;;;2.50;;
12826;SDS011;66927;48.812;9.118;2023-07-31T14:42:36;3.77;;;2.73;;
12826;SDS011;66927;48.812;9.118;2023-07-31T14:45:02;3.77;;;2.70;;
12826;SDS011;66927;48.812;9.118;2023-07-31T14:47:28;6.03;;;3.03;;
12826;SDS011;66927;48.812;9.118;2023-07-31T14:49:56;4.33;;;2.87;;
12826;SDS011;66927;48.812;9.118;2023-07-31T14:52:21;2.97;;;2.40;;
12826;SDS011;66927;48.812;9.118;2023-07-31T14:54:47;2.63;;;2.37;;
12826;SDS011;66927;48.812;9.118;2023-07-31T14:57:12;5.07;;;3.10;;